sensor_id;sensor_type;location;lat;lon;timestamp;P1;durP1;ratioP1;P2;durP2;ratioP2
53903;SDS011;39812;52.430;16.936;2022-09-01T00:01:42;4.78;;;1.90;;
53903;SDS011;39812;52.430;16.936;2022-09-01T00:04:10;2.33;;;1.50;;
53903;SDS011;39812;52.430;16.936;2022-09-01T00:06:39;3.83;;;1.67;;
53903;SDS011;39812;52.430;16.936;2022-09-01T00:09:05;3.92;;;2.22;;
53903;SDS011;39812;52.430;16.936;2022-09-01T00:11:33;3.33;;;1.63;;
53903;SDS011;39812;52.430;16.936;2022-09-01T00:13:59;3.10;;;1.73;;
53903;SDS011;39812;52.430;16.936;2022-09-01T00:16:26;4.00;;;1.65;;
53903;SDS011;39812;52.430;16.936;2022-09-01T00:18:53;3.13;;;1.60;;
53903;SDS011;39812;52.430;16.936;2022-09-01T00:21:20;2.70;;;1.70;;
53903;SDS011;39812;52.430;16.936;2022-09-01T00:23:55;3.22;;;1.88;;
53903;SDS011;39812;52.430;16.936;2022-09-01T00:26:20;3.15;;;1.85;;
53903;SDS011;39812;52.430;16.936;2022-09-01T00:28:46;3.15;;;1.63;;
53903;SDS011;39812;52.430;16.936;2022-09-01T00:31:11;3.35;;;1.95;;
53903;SDS011;39812;52.430;16.936;2022-09-01T00:33:38;4.85;;;1.63;;
53903;SDS011;39812;52.430;16.936;2022-09-01T00:36:04;3.38;;;1.70;;
53903;SDS011;39812;52.430;16.936;2022-09-01T00:38:31;3.10;;;1.70;;
53903;SDS011;39812;52.430;16.936;2022-09-01T00:40:57;5.00;;;1.63;;
53903;SDS011;39812;52.430;16.936;2022-09-01T00:43:44;5.60;;;1.92;;
53903;SDS011;39812;52.430;16.936;2022-09-01T00:46:17;3.55;;;1.70;;
53903;SDS011;39812;52.430;16.936;2022-09-01T00:48:52;5.03;;;1.73;;
53903;SDS011;39812;52.430;16.936;2022-09-01T00:51:23;4.15;;;1.90;;
53903;SDS011;39812;52.430;16.936;2022-09-01T00:53:49;3.55;;;1.95;;
53903;SDS011;39812;52.430;16.936;2022-09-01T00:56:16;5.10;;;1.92;;
53903;SDS011;39812;52.430;16.936;2022-09-01T00:58:42;4.53;;;1.90;;
53903;SDS011;39812;52.430;16.936;2022-09-01T01:01:08;4.10;;;1.92;;
53903;SDS011;39812;52.430;16.936;2022-09-01T01:03:35;2.65;;;1.83;;
53903;SDS011;39812;52.430;16.936;2022-09-01T01:06:02;6.55;;;2.10;;
53903;SDS011;39812;52.430;16.936;2022-09-01T01:08:32;4.28;;;2.00;;
53903;SDS011;39812;52.430;16.936;2022-09-01T01:11:01;4.25;;;1.88;;
53903;SDS011;39812;52.430;16.936;2022-09-01T01:13:45;6.38;;;1.67;;
53903;SDS011;39812;52.430;16.936;2022-09-01T01:16:15;6.38;;;2.17;;
53903;SDS011;39812;52.430;16.936;2022-09-01T01:18:41;4.22;;;2.10;;
53903;SDS011;39812;52.430;16.936;2022-09-01T01:21:08;2.97;;;1.88;;
53903;SDS011;39812;52.430;16.936;2022-09-01T01:24:07;4.80;;;2.00;;
53903;SDS011;39812;52.430;16.936;2022-09-01T01:26:46;3.17;;;1.90;;
53903;SDS011;39812;52.430;16.936;2022-09-01T01:29:12;5.32;;;1.80;;
53903;SDS011;39812;52.430;16.936;2022-09-01T01:31:38;3.33;;;1.65;;
53903;SDS011;39812;52.430;16.936;2022-09-01T01:34:03;2.72;;;1.65;;
53903;SDS011;39812;52.430;16.936;2022-09-01T01:36:34;2.90;;;1.80;;
53903;SDS011;39812;52.430;16.936;2022-09-01T01:39:08;6.25;;;2.08;;
53903;SDS011;39812;52.430;16.936;2022-09-01T01:41:36;3.42;;;1.77;;
53903;SDS011;39812;52.430;16.936;2022-09-01T01:44:08;4.47;;;1.73;;
53903;SDS011;39812;52.430;16.936;2022-09-01T01:46:35;5.10;;;1.88;;
53903;SDS011;39812;52.430;16.936;2022-09-01T01:49:06;4.10;;;1.90;;
53903;SDS011;39812;52.430;16.936;2022-09-01T01:51:33;2.88;;;1.70;;
53903;SDS011;39812;52.430;16.936;2022-09-01T01:53:59;4.60;;;1.90;;
53903;SDS011;39812;52.430;16.936;2022-09-01T01:56:30;5.22;;;2.42;;
53903;SDS011;39812;52.430;16.936;2022-09-01T01:58:57;4.13;;;2.00;;
53903;SDS011;39812;52.430;16.936;2022-09-01T02:01:23;4.30;;;2.15;;
53903;SDS011;39812;52.430;16.936;2022-09-01T02:03:52;2.97;;;2.10;;
53903;SDS011;39812;52.430;16.936;2022-09-01T02:06:19;3.75;;;2.25;;
53903;SDS011;39812;52.430;16.936;2022-09-01T02:08:48;5.72;;;2.13;;
53903;SDS011;39812;52.430;16.936;2022-09-01T02:11:14;3.40;;;2.17;;
53903;SDS011;39812;52.430;16.936;2022-09-01T02:13:41;5.65;;;1.90;;
53903;SDS011;39812;52.430;16.936;2022-09-01T02:16:07;3.45;;;2.10;;
53903;SDS011;39812;52.430;16.936;2022-09-01T02:18:39;3.78;;;2.40;;
53903;SDS011;39812;52.430;16.936;2022-09-01T02:21:08;3.67;;;2.25;;
53903;SDS011;39812;52.430;16.936;2022-09-01T02:23:35;4.22;;;2.15;;
53903;SDS011;39812;52.430;16.936;2022-09-01T02:26:02;3.95;;;2.30;;
53903;SDS011;39812;52.430;16.936;2022-09-01T02:28:30;4.68;;;2.15;;
53903;SDS011;39812;52.430;16.936;2022-09-01T02:30:58;4.10;;;2.22;;
53903;SDS011;39812;52.430;16.936;2022-09-01T02:33:27;3.33;;;2.35;;
53903;SDS011;39812;52.430;16.936;2022-09-01T02:35:56;5.57;;;3.30;;
53903;SDS011;39812;52.430;16.936;2022-09-01T02:38:23;6.32;;;2.45;;
53903;SDS011;39812;52.430;16.936;2022-09-01T02:40:53;2.92;;;2.10;;
53903;SDS011;39812;52.430;16.936;2022-09-01T02:43:20;4.03;;;2.22;;
53903;SDS011;39812;52.430;16.936;2022-09-01T02:45:46;3.10;;;2.15;;
53903;SDS011;39812;52.430;16.936;2022-09-01T02:48:18;3.65;;;2.38;;
53903;SDS011;39812;52.430;16.936;2022-09-01T02:50:46;3.25;;;2.03;;
53903;SDS011;39812;52.430;16.936;2022-09-01T02:53:13;4.57;;;2.10;;
53903;SDS011;39812;52.430;16.936;2022-09-01T02:55:39;4.63;;;2.45;;
53903;SDS011;39812;52.430;16.936;2022-09-01T02:58:06;2.50;;;1.80;;
53903;SDS011;39812;52.430;16.936;2022-09-01T03:00:34;2.85;;;1.98;;
53903;SDS011;39812;52.430;16.936;2022-09-01T03:03:04;4.93;;;2.45;;
53903;SDS011;39812;52.430;16.936;2022-09-01T03:05:31;4.43;;;2.45;;
53903;SDS011;39812;52.430;16.936;2022-09-01T03:07:59;3.10;;;2.15;;
53903;SDS011;39812;52.430;16.936;2022-09-01T03:10:28;3.90;;;2.25;;
53903;SDS011;39812;52.430;16.936;2022-09-01T03:12:59;5.85;;;2.05;;
53903;SDS011;39812;52.430;16.936;2022-09-01T03:15:26;2.97;;;2.20;;
53903;SDS011;39812;52.430;16.936;2022-09-01T03:17:52;3.97;;;2.17;;
53903;SDS011;39812;52.430;16.936;2022-09-01T03:20:18;4.72;;;2.80;;
53903;SDS011;39812;52.430;16.936;2022-09-01T03:22:46;4.65;;;2.63;;
53903;SDS011;39812;52.430;16.936;2022-09-01T03:25:12;4.63;;;2.35;;
53903;SDS011;39812;52.430;16.936;2022-09-01T03:27:38;4.65;;;2.70;;
53903;SDS011;39812;52.430;16.936;2022-09-01T03:30:04;3.58;;;2.10;;
53903;SDS011;39812;52.430;16.936;2022-09-01T03:32:30;7.75;;;2.30;;
53903;SDS011;39812;52.430;16.936;2022-09-01T03:34:56;3.78;;;2.47;;
53903;SDS011;39812;52.430;16.936;2022-09-01T03:37:22;5.68;;;2.30;;
53903;SDS011;39812;52.430;16.936;2022-09-01T03:39:47;3.03;;;2.25;;
53903;SDS011;39812;52.430;16.936;2022-09-01T03:42:13;4.82;;;2.20;;
53903;SDS011;39812;52.430;16.936;2022-09-01T03:44:46;7.40;;;2.50;;
53903;SDS011;39812;52.430;16.936;2022-09-01T03:47:13;3.20;;;2.28;;
53903;SDS011;39812;52.430;16.936;2022-09-01T03:49:39;4.32;;;2.63;;
53903;SDS011;39812;52.430;16.936;2022-09-01T03:52:06;3.80;;;2.47;;
53903;SDS011;39812;52.430;16.936;2022-09-01T03:54:32;6.40;;;2.60;;
53903;SDS011;39812;52.430;16.936;2022-09-01T03:56:58;5.00;;;2.30;;
53903;SDS011;39812;52.430;16.936;2022-09-01T03:59:24;3.97;;;2.67;;
53903;SDS011;39812;52.430;16.936;2022-09-01T04:01:50;4.85;;;2.33;;
53903;SDS011;39812;52.430;16.936;2022-09-01T04:04:16;4.47;;;2.53;;
53903;SDS011;39812;52.430;16.936;2022-09-01T04:06:42;4.95;;;3.25;;
53903;SDS011;39812;52.430;16.936;2022-09-01T04:09:10;5.05;;;2.55;;
53903;SDS011;39812;52.430;16.936;2022-09-01T04:11:37;6.50;;;2.38;;
53903;SDS011;39812;52.430;16.936;2022-09-01T04:14:03;6.70;;;2.90;;
53903;SDS011;39812;52.430;16.936;2022-09-01T04:16:31;5.18;;;3.17;;
53903;SDS011;39812;52.430;16.936;2022-09-01T04:19:17;3.58;;;2.30;;
53903;SDS011;39812;52.430;16.936;2022-09-01T04:21:49;3.58;;;2.53;;
53903;SDS011;39812;52.430;16.936;2022-09-01T04:24:20;4.20;;;3.10;;
53903;SDS011;39812;52.430;16.936;2022-09-01T04:26:51;3.58;;;2.33;;
53903;SDS011;39812;52.430;16.936;2022-09-01T04:29:20;3.97;;;2.58;;
53903;SDS011;39812;52.430;16.936;2022-09-01T04:31:54;4.05;;;2.72;;
53903;SDS011;39812;52.430;16.936;2022-09-01T04:34:20;3.35;;;2.40;;
53903;SDS011;39812;52.430;16.936;2022-09-01T04:36:49;4.65;;;2.70;;
53903;SDS011;39812;52.430;16.936;2022-09-01T04:39:19;4.53;;;2.53;;
53903;SDS011;39812;52.430;16.936;2022-09-01T04:41:46;6.20;;;2.55;;
53903;SDS011;39812;52.430;16.936;2022-09-01T04:44:12;8.40;;;2.50;;
53903;SDS011;39812;52.430;16.936;2022-09-01T04:46:40;6.72;;;2.80;;
53903;SDS011;39812;52.430;16.936;2022-09-01T04:49:07;4.72;;;2.55;;
53903;SDS011;39812;52.430;16.936;2022-09-01T04:51:41;2.97;;;2.22;;
53903;SDS011;39812;52.430;16.936;2022-09-01T04:54:08;4.20;;;2.60;;
53903;SDS011;39812;52.430;16.936;2022-09-01T04:56:38;3.00;;;2.20;;
53903;SDS011;39812;52.430;16.936;2022-09-01T04:59:04;4.47;;;2.72;;
53903;SDS011;39812;52.430;16.936;2022-09-01T05:01:32;3.03;;;2.42;;
53903;SDS011;39812;52.430;16.936;2022-09-01T05:04:08;3.90;;;2.65;;
53903;SDS011;39812;52.430;16.936;2022-09-01T05:06:42;6.47;;;2.22;;
53903;SDS011;39812;52.430;16.936;2022-09-01T05:09:09;4.70;;;2.15;;
53903;SDS011;39812;52.430;16.936;2022-09-01T05:11:36;7.57;;;2.97;;
53903;SDS011;39812;52.430;16.936;2022-09-01T05:14:02;3.20;;;2.25;;
53903;SDS011;39812;52.430;16.936;2022-09-01T05:16:29;2.95;;;2.25;;
53903;SDS011;39812;52.430;16.936;2022-09-01T05:18:55;4.15;;;2.40;;
53903;SDS011;39812;52.430;16.936;2022-09-01T05:21:22;4.15;;;2.30;;
53903;SDS011;39812;52.430;16.936;2022-09-01T05:23:50;5.05;;;2.55;;
53903;SDS011;39812;52.430;16.936;2022-09-01T05:26:20;6.40;;;2.65;;
53903;SDS011;39812;52.430;16.936;2022-09-01T05:28:48;3.58;;;2.50;;
53903;SDS011;39812;52.430;16.936;2022-09-01T05:31:20;2.92;;;1.70;;
53903;SDS011;39812;52.430;16.936;2022-09-01T05:33:48;4.05;;;1.95;;
53903;SDS011;39812;52.430;16.936;2022-09-01T05:36:16;4.65;;;2.60;;
53903;SDS011;39812;52.430;16.936;2022-09-01T05:38:44;5.45;;;2.30;;
53903;SDS011;39812;52.430;16.936;2022-09-01T05:41:12;6.43;;;2.63;;
53903;SDS011;39812;52.430;16.936;2022-09-01T05:43:42;3.50;;;2.15;;
53903;SDS011;39812;52.430;16.936;2022-09-01T05:46:13;2.47;;;2.17;;
53903;SDS011;39812;52.430;16.936;2022-09-01T05:48:41;3.00;;;2.08;;
53903;SDS011;39812;52.430;16.936;2022-09-01T05:51:13;3.28;;;2.05;;
53903;SDS011;39812;52.430;16.936;2022-09-01T05:53:40;4.55;;;2.05;;
53903;SDS011;39812;52.430;16.936;2022-09-01T05:56:07;2.85;;;2.03;;
53903;SDS011;39812;52.430;16.936;2022-09-01T05:58:34;4.95;;;2.22;;
53903;SDS011;39812;52.430;16.936;2022-09-01T06:01:00;4.60;;;2.33;;
53903;SDS011;39812;52.430;16.936;2022-09-01T06:03:26;2.35;;;2.00;;
53903;SDS011;39812;52.430;16.936;2022-09-01T06:05:53;3.92;;;2.67;;
53903;SDS011;39812;52.430;16.936;2022-09-01T06:08:23;3.65;;;2.00;;
53903;SDS011;39812;52.430;16.936;2022-09-01T06:10:49;4.50;;;2.13;;
53903;SDS011;39812;52.430;16.936;2022-09-01T06:13:16;2.92;;;1.90;;
53903;SDS011;39812;52.430;16.936;2022-09-01T06:15:46;3.58;;;1.77;;
53903;SDS011;39812;52.430;16.936;2022-09-01T06:18:12;2.80;;;1.73;;
53903;SDS011;39812;52.430;16.936;2022-09-01T06:20:41;4.55;;;1.90;;
53903;SDS011;39812;52.430;16.936;2022-09-01T06:23:09;5.90;;;1.92;;
53903;SDS011;39812;52.430;16.936;2022-09-01T06:25:38;5.28;;;2.00;;
53903;SDS011;39812;52.430;16.936;2022-09-01T06:28:06;4.32;;;1.60;;
53903;SDS011;39812;52.430;16.936;2022-09-01T06:30:32;3.10;;;1.60;;
53903;SDS011;39812;52.430;16.936;2022-09-01T06:33:00;2.85;;;1.50;;
53903;SDS011;39812;52.430;16.936;2022-09-01T06:35:26;7.13;;;1.40;;
53903;SDS011;39812;52.430;16.936;2022-09-01T06:37:54;2.53;;;1.48;;
53903;SDS011;39812;52.430;16.936;2022-09-01T06:40:20;5.28;;;1.70;;
53903;SDS011;39812;52.430;16.936;2022-09-01T06:42:51;3.65;;;1.60;;
53903;SDS011;39812;52.430;16.936;2022-09-01T06:45:18;1.73;;;1.25;;
53903;SDS011;39812;52.430;16.936;2022-09-01T06:47:45;5.40;;;1.17;;
53903;SDS011;39812;52.430;16.936;2022-09-01T06:50:13;3.00;;;2.28;;
53903;SDS011;39812;52.430;16.936;2022-09-01T06:52:40;1.65;;;1.00;;
53903;SDS011;39812;52.430;16.936;2022-09-01T06:55:06;2.33;;;1.20;;
53903;SDS011;39812;52.430;16.936;2022-09-01T06:57:33;2.22;;;1.42;;
53903;SDS011;39812;52.430;16.936;2022-09-01T06:59:59;1.42;;;0.82;;
53903;SDS011;39812;52.430;16.936;2022-09-01T07:02:31;2.50;;;0.90;;
53903;SDS011;39812;52.430;16.936;2022-09-01T07:04:57;2.88;;;0.80;;
53903;SDS011;39812;52.430;16.936;2022-09-01T07:07:23;5.05;;;0.90;;
53903;SDS011;39812;52.430;16.936;2022-09-01T07:09:51;5.35;;;0.68;;
53903;SDS011;39812;52.430;16.936;2022-09-01T07:12:17;2.65;;;0.85;;
53903;SDS011;39812;52.430;16.936;2022-09-01T07:14:43;2.83;;;0.90;;
53903;SDS011;39812;52.430;16.936;2022-09-01T07:17:09;1.50;;;0.90;;
53903;SDS011;39812;52.430;16.936;2022-09-01T07:19:40;1.83;;;0.98;;
53903;SDS011;39812;52.430;16.936;2022-09-01T07:22:05;3.60;;;0.80;;
53903;SDS011;39812;52.430;16.936;2022-09-01T07:24:31;4.53;;;0.90;;
53903;SDS011;39812;52.430;16.936;2022-09-01T07:26:59;1.30;;;0.60;;
53903;SDS011;39812;52.430;16.936;2022-09-01T07:29:25;1.38;;;0.98;;
53903;SDS011;39812;52.430;16.936;2022-09-01T07:31:50;3.20;;;0.70;;
53903;SDS011;39812;52.430;16.936;2022-09-01T07:34:19;1.45;;;0.60;;
53903;SDS011;39812;52.430;16.936;2022-09-01T07:36:46;1.17;;;0.70;;
53903;SDS011;39812;52.430;16.936;2022-09-01T07:39:12;4.03;;;0.80;;
53903;SDS011;39812;52.430;16.936;2022-09-01T07:41:38;1.73;;;0.60;;
53903;SDS011;39812;52.430;16.936;2022-09-01T07:44:06;2.58;;;0.80;;
53903;SDS011;39812;52.430;16.936;2022-09-01T07:46:34;2.60;;;0.82;;
53903;SDS011;39812;52.430;16.936;2022-09-01T07:49:00;1.88;;;0.82;;
53903;SDS011;39812;52.430;16.936;2022-09-01T07:51:26;1.35;;;0.70;;
53903;SDS011;39812;52.430;16.936;2022-09-01T07:53:54;1.48;;;0.73;;
53903;SDS011;39812;52.430;16.936;2022-09-01T07:56:21;2.00;;;0.60;;
53903;SDS011;39812;52.430;16.936;2022-09-01T07:58:48;2.28;;;0.60;;
53903;SDS011;39812;52.430;16.936;2022-09-01T08:01:16;1.80;;;0.70;;
53903;SDS011;39812;52.430;16.936;2022-09-01T08:03:44;2.05;;;0.70;;
53903;SDS011;39812;52.430;16.936;2022-09-01T08:06:11;2.25;;;0.60;;
53903;SDS011;39812;52.430;16.936;2022-09-01T08:08:43;1.92;;;0.60;;
53903;SDS011;39812;52.430;16.936;2022-09-01T08:11:09;1.45;;;0.40;;
53903;SDS011;39812;52.430;16.936;2022-09-01T08:13:44;1.77;;;0.50;;
53903;SDS011;39812;52.430;16.936;2022-09-01T08:16:11;0.93;;;0.50;;
53903;SDS011;39812;52.430;16.936;2022-09-01T08:18:38;0.52;;;0.40;;
53903;SDS011;39812;52.430;16.936;2022-09-01T08:21:05;1.63;;;0.63;;
53903;SDS011;39812;52.430;16.936;2022-09-01T08:23:32;2.85;;;0.70;;
53903;SDS011;39812;52.430;16.936;2022-09-01T08:26:03;0.60;;;0.30;;
53903;SDS011;39812;52.430;16.936;2022-09-01T08:28:31;2.05;;;0.50;;
53903;SDS011;39812;52.430;16.936;2022-09-01T08:30:57;0.73;;;0.45;;
53903;SDS011;39812;52.430;16.936;2022-09-01T08:33:24;2.65;;;0.43;;
53903;SDS011;39812;52.430;16.936;2022-09-01T08:35:50;1.83;;;0.80;;
53903;SDS011;39812;52.430;16.936;2022-09-01T08:38:16;2.00;;;0.40;;
53903;SDS011;39812;52.430;16.936;2022-09-01T08:40:42;1.10;;;0.60;;
53903;SDS011;39812;52.430;16.936;2022-09-01T08:43:20;0.70;;;0.47;;
53903;SDS011;39812;52.430;16.936;2022-09-01T08:46:06;0.82;;;0.40;;
53903;SDS011;39812;52.430;16.936;2022-09-01T08:48:40;1.45;;;0.60;;
53903;SDS011;39812;52.430;16.936;2022-09-01T08:51:19;1.00;;;0.40;;
53903;SDS011;39812;52.430;16.936;2022-09-01T08:56:40;1.52;;;0.70;;
53903;SDS011;39812;52.430;16.936;2022-09-01T08:59:05;2.67;;;0.40;;
53903;SDS011;39812;52.430;16.936;2022-09-01T09:01:45;0.98;;;0.40;;
53903;SDS011;39812;52.430;16.936;2022-09-01T09:07:31;0.40;;;0.30;;
53903;SDS011;39812;52.430;16.936;2022-09-01T09:10:04;1.15;;;0.45;;
53903;SDS011;39812;52.430;16.936;2022-09-01T09:20:36;1.10;;;0.50;;
53903;SDS011;39812;52.430;16.936;2022-09-01T09:23:05;2.90;;;0.40;;
53903;SDS011;39812;52.430;16.936;2022-09-01T09:25:37;1.80;;;0.60;;
53903;SDS011;39812;52.430;16.936;2022-09-01T09:28:03;3.70;;;0.40;;
53903;SDS011;39812;52.430;16.936;2022-09-01T09:30:28;0.85;;;0.32;;
53903;SDS011;39812;52.430;16.936;2022-09-01T09:35:27;1.42;;;0.40;;
53903;SDS011;39812;52.430;16.936;2022-09-01T09:38:13;1.42;;;0.50;;
53903;SDS011;39812;52.430;16.936;2022-09-01T09:40:57;1.70;;;0.40;;
53903;SDS011;39812;52.430;16.936;2022-09-01T09:43:28;3.90;;;0.60;;
53903;SDS011;39812;52.430;16.936;2022-09-01T09:48:44;1.05;;;0.38;;
53903;SDS011;39812;52.430;16.936;2022-09-01T09:51:18;0.98;;;0.50;;
53903;SDS011;39812;52.430;16.936;2022-09-01T09:53:46;1.58;;;0.40;;
53903;SDS011;39812;52.430;16.936;2022-09-01T09:56:17;3.05;;;0.50;;
53903;SDS011;39812;52.430;16.936;2022-09-01T09:58:45;0.93;;;0.40;;
53903;SDS011;39812;52.430;16.936;2022-09-01T10:03:50;1.40;;;0.40;;
53903;SDS011;39812;52.430;16.936;2022-09-01T10:06:31;0.40;;;0.35;;
53903;SDS011;39812;52.430;16.936;2022-09-01T10:09:16;0.35;;;0.30;;
53903;SDS011;39812;52.430;16.936;2022-09-01T10:11:58;0.95;;;0.55;;
53903;SDS011;39812;52.430;16.936;2022-09-01T10:14:30;1.70;;;0.40;;
53903;SDS011;39812;52.430;16.936;2022-09-01T10:17:02;0.65;;;0.30;;
53903;SDS011;39812;52.430;16.936;2022-09-01T10:19:32;3.22;;;0.30;;
53903;SDS011;39812;52.430;16.936;2022-09-01T10:21:59;1.15;;;0.40;;
53903;SDS011;39812;52.430;16.936;2022-09-01T10:24:30;0.70;;;0.25;;
53903;SDS011;39812;52.430;16.936;2022-09-01T10:27:01;2.00;;;0.30;;
53903;SDS011;39812;52.430;16.936;2022-09-01T10:32:11;2.42;;;0.38;;
53903;SDS011;39812;52.430;16.936;2022-09-01T10:34:41;2.85;;;0.40;;
53903;SDS011;39812;52.430;16.936;2022-09-01T10:37:09;0.70;;;0.30;;
53903;SDS011;39812;52.430;16.936;2022-09-01T10:39:54;2.80;;;0.40;;
53903;SDS011;39812;52.430;16.936;2022-09-01T10:42:40;0.85;;;0.40;;
53903;SDS011;39812;52.430;16.936;2022-09-01T10:45:15;1.73;;;0.40;;
53903;SDS011;39812;52.430;16.936;2022-09-01T10:47:46;0.60;;;0.30;;
53903;SDS011;39812;52.430;16.936;2022-09-01T10:50:29;0.95;;;0.40;;
53903;SDS011;39812;52.430;16.936;2022-09-01T10:55:31;1.15;;;0.43;;
53903;SDS011;39812;52.430;16.936;2022-09-01T10:58:23;3.05;;;0.60;;
53903;SDS011;39812;52.430;16.936;2022-09-01T11:01:12;2.47;;;0.55;;
53903;SDS011;39812;52.430;16.936;2022-09-01T11:03:47;2.10;;;0.43;;
53903;SDS011;39812;52.430;16.936;2022-09-01T11:09:15;1.60;;;0.63;;
53903;SDS011;39812;52.430;16.936;2022-09-01T11:11:46;0.82;;;0.40;;
53903;SDS011;39812;52.430;16.936;2022-09-01T11:14:33;0.85;;;0.52;;
53903;SDS011;39812;52.430;16.936;2022-09-01T11:17:23;0.88;;;0.70;;
53903;SDS011;39812;52.430;16.936;2022-09-01T11:20:28;2.42;;;0.40;;
53903;SDS011;39812;52.430;16.936;2022-09-01T11:23:03;1.50;;;0.45;;
53903;SDS011;39812;52.430;16.936;2022-09-01T11:25:42;1.23;;;0.43;;
53903;SDS011;39812;52.430;16.936;2022-09-01T11:31:47;1.02;;;0.65;;
53903;SDS011;39812;52.430;16.936;2022-09-01T11:36:28;2.85;;;0.57;;
53903;SDS011;39812;52.430;16.936;2022-09-01T11:39:01;0.95;;;0.40;;
53903;SDS011;39812;52.430;16.936;2022-09-01T11:41:59;0.80;;;0.40;;
53903;SDS011;39812;52.430;16.936;2022-09-01T11:44:43;1.10;;;0.55;;
53903;SDS011;39812;52.430;16.936;2022-09-01T11:47:31;0.77;;;0.40;;
53903;SDS011;39812;52.430;16.936;2022-09-01T11:50:06;1.67;;;0.43;;
53903;SDS011;39812;52.430;16.936;2022-09-01T11:52:41;2.45;;;0.40;;
53903;SDS011;39812;52.430;16.936;2022-09-01T11:55:15;0.85;;;0.32;;
53903;SDS011;39812;52.430;16.936;2022-09-01T11:57:53;2.83;;;0.40;;
53903;SDS011;39812;52.430;16.936;2022-09-01T12:00:24;1.50;;;0.45;;
53903;SDS011;39812;52.430;16.936;2022-09-01T12:02:55;2.25;;;0.50;;
53903;SDS011;39812;52.430;16.936;2022-09-01T12:05:22;1.02;;;0.40;;
53903;SDS011;39812;52.430;16.936;2022-09-01T12:08:03;2.53;;;0.45;;
53903;SDS011;39812;52.430;16.936;2022-09-01T12:10:37;1.25;;;0.40;;
53903;SDS011;39812;52.430;16.936;2022-09-01T12:13:07;1.25;;;0.50;;
53903;SDS011;39812;52.430;16.936;2022-09-01T12:15:35;0.70;;;0.43;;
53903;SDS011;39812;52.430;16.936;2022-09-01T12:18:11;0.85;;;0.30;;
53903;SDS011;39812;52.430;16.936;2022-09-01T12:20:44;0.80;;;0.45;;
53903;SDS011;39812;52.430;16.936;2022-09-01T12:23:21;1.02;;;0.30;;
53903;SDS011;39812;52.430;16.936;2022-09-01T12:25:49;1.20;;;0.25;;
53903;SDS011;39812;52.430;16.936;2022-09-01T12:28:16;1.27;;;0.30;;
53903;SDS011;39812;52.430;16.936;2022-09-01T12:30:42;0.95;;;0.38;;
53903;SDS011;39812;52.430;16.936;2022-09-01T12:33:09;1.00;;;0.35;;
53903;SDS011;39812;52.430;16.936;2022-09-01T12:35:36;1.05;;;0.30;;
53903;SDS011;39812;52.430;16.936;2022-09-01T12:40:47;2.58;;;0.50;;
53903;SDS011;39812;52.430;16.936;2022-09-01T12:46:00;0.80;;;0.30;;
53903;SDS011;39812;52.430;16.936;2022-09-01T12:48:32;2.15;;;0.40;;
53903;SDS011;39812;52.430;16.936;2022-09-01T12:53:49;1.58;;;0.35;;
53903;SDS011;39812;52.430;16.936;2022-09-01T12:58:46;1.50;;;0.40;;
53903;SDS011;39812;52.430;16.936;2022-09-01T13:01:25;0.45;;;0.20;;
53903;SDS011;39812;52.430;16.936;2022-09-01T13:06:34;0.75;;;0.32;;
53903;SDS011;39812;52.430;16.936;2022-09-01T13:09:00;1.13;;;0.30;;
53903;SDS011;39812;52.430;16.936;2022-09-01T13:11:26;0.47;;;0.30;;
53903;SDS011;39812;52.430;16.936;2022-09-01T13:13:51;1.67;;;0.30;;
53903;SDS011;39812;52.430;16.936;2022-09-01T13:16:17;0.77;;;0.30;;
53903;SDS011;39812;52.430;16.936;2022-09-01T13:18:42;0.30;;;0.30;;
53903;SDS011;39812;52.430;16.936;2022-09-01T13:21:08;1.23;;;0.35;;
53903;SDS011;39812;52.430;16.936;2022-09-01T13:23:34;1.48;;;0.32;;
53903;SDS011;39812;52.430;16.936;2022-09-01T13:26:00;1.75;;;0.40;;
53903;SDS011;39812;52.430;16.936;2022-09-01T13:28:26;0.50;;;0.30;;
53903;SDS011;39812;52.430;16.936;2022-09-01T13:30:54;1.73;;;0.40;;
53903;SDS011;39812;52.430;16.936;2022-09-01T13:33:22;2.42;;;0.35;;
53903;SDS011;39812;52.430;16.936;2022-09-01T13:35:48;1.63;;;0.40;;
53903;SDS011;39812;52.430;16.936;2022-09-01T13:38:14;0.65;;;0.40;;
53903;SDS011;39812;52.430;16.936;2022-09-01T13:40:41;0.45;;;0.40;;
53903;SDS011;39812;52.430;16.936;2022-09-01T13:43:07;1.60;;;0.40;;
53903;SDS011;39812;52.430;16.936;2022-09-01T13:45:33;0.40;;;0.28;;
53903;SDS011;39812;52.430;16.936;2022-09-01T13:47:58;2.85;;;0.40;;
53903;SDS011;39812;52.430;16.936;2022-09-01T13:50:24;0.60;;;0.40;;
53903;SDS011;39812;52.430;16.936;2022-09-01T13:52:52;0.75;;;0.40;;
53903;SDS011;39812;52.430;16.936;2022-09-01T13:55:24;0.50;;;0.30;;
53903;SDS011;39812;52.430;16.936;2022-09-01T13:57:51;2.75;;;0.30;;
53903;SDS011;39812;52.430;16.936;2022-09-01T14:00:18;1.98;;;0.40;;
53903;SDS011;39812;52.430;16.936;2022-09-01T14:02:48;1.92;;;0.30;;
53903;SDS011;39812;52.430;16.936;2022-09-01T14:05:19;0.20;;;0.20;;
53903;SDS011;39812;52.430;16.936;2022-09-01T14:07:52;0.75;;;0.30;;
53903;SDS011;39812;52.430;16.936;2022-09-01T14:10:19;2.72;;;0.60;;
53903;SDS011;39812;52.430;16.936;2022-09-01T14:12:45;2.03;;;0.40;;
53903;SDS011;39812;52.430;16.936;2022-09-01T14:15:12;0.20;;;0.20;;
53903;SDS011;39812;52.430;16.936;2022-09-01T14:17:40;2.08;;;0.45;;
53903;SDS011;39812;52.430;16.936;2022-09-01T14:20:07;0.93;;;0.40;;
53903;SDS011;39812;52.430;16.936;2022-09-01T14:22:36;0.70;;;0.30;;
53903;SDS011;39812;52.430;16.936;2022-09-01T14:25:04;1.15;;;0.40;;
53903;SDS011;39812;52.430;16.936;2022-09-01T14:27:30;2.25;;;0.70;;
53903;SDS011;39812;52.430;16.936;2022-09-01T14:29:55;1.25;;;0.50;;
53903;SDS011;39812;52.430;16.936;2022-09-01T14:32:21;0.57;;;0.55;;
53903;SDS011;39812;52.430;16.936;2022-09-01T14:34:49;3.55;;;0.50;;
53903;SDS011;39812;52.430;16.936;2022-09-01T14:37:14;1.20;;;0.30;;
53903;SDS011;39812;52.430;16.936;2022-09-01T14:39:40;2.72;;;0.50;;
53903;SDS011;39812;52.430;16.936;2022-09-01T14:42:06;0.80;;;0.30;;
53903;SDS011;39812;52.430;16.936;2022-09-01T14:44:34;0.85;;;0.35;;
53903;SDS011;39812;52.430;16.936;2022-09-01T14:47:01;1.52;;;0.70;;
53903;SDS011;39812;52.430;16.936;2022-09-01T14:49:26;0.40;;;0.30;;
53903;SDS011;39812;52.430;16.936;2022-09-01T14:51:53;0.68;;;0.35;;
53903;SDS011;39812;52.430;16.936;2022-09-01T14:54:19;1.27;;;0.50;;
53903;SDS011;39812;52.430;16.936;2022-09-01T14:56:44;0.85;;;0.50;;
53903;SDS011;39812;52.430;16.936;2022-09-01T14:59:10;0.93;;;0.43;;
53903;SDS011;39812;52.430;16.936;2022-09-01T15:01:36;0.63;;;0.40;;
53903;SDS011;39812;52.430;16.936;2022-09-01T15:04:01;0.73;;;0.40;;
53903;SDS011;39812;52.430;16.936;2022-09-01T15:06:27;1.23;;;0.60;;
53903;SDS011;39812;52.430;16.936;2022-09-01T15:08:52;0.30;;;0.30;;
53903;SDS011;39812;52.430;16.936;2022-09-01T15:11:19;1.92;;;0.45;;
53903;SDS011;39812;52.430;16.936;2022-09-01T15:13:45;1.65;;;0.45;;
53903;SDS011;39812;52.430;16.936;2022-09-01T15:16:12;0.60;;;0.40;;
53903;SDS011;39812;52.430;16.936;2022-09-01T15:18:40;3.17;;;0.50;;
53903;SDS011;39812;52.430;16.936;2022-09-01T15:21:06;1.35;;;0.40;;
53903;SDS011;39812;52.430;16.936;2022-09-01T15:23:31;0.50;;;0.40;;
53903;SDS011;39812;52.430;16.936;2022-09-01T15:25:57;0.73;;;0.40;;
53903;SDS011;39812;52.430;16.936;2022-09-01T15:28:23;0.80;;;0.30;;
53903;SDS011;39812;52.430;16.936;2022-09-01T15:30:49;2.65;;;0.50;;
53903;SDS011;39812;52.430;16.936;2022-09-01T15:33:16;1.48;;;0.40;;
53903;SDS011;39812;52.430;16.936;2022-09-01T15:35:42;1.45;;;0.40;;